Atqasuk Edward Burnell Sr Memorial Airport Atqasuk US
ICAO: PATQ
IATA:
Category: Medium
Scheduled Services:

Elevation: 96 ft
TransAlt. 18000 ft.

Airport Communications:
ASOS:119.925
ANCHORAGE CNTR:135.3
CTAF:122.9
BARROW RDO:122.2

PATQ Zoom In..

Runways:

(A) RW 06 length 4370 ft width 90 ft
---- / hdg 61

(B) RW 24 length 4370 ft width 90 ft
---- / hdg 241

Location; PATQ
Day. 23 / Time. 01.29 Zulu
* Altimeter: 29.80
* Temperature: -03° c. -26.6°f.
* Wind from: 050° Speed 19 kn.
Dewpoint: -04° c.
Visibility: 10 Statute Miles.
Clouds: Overcast 700 ft.

PATQ 230129Z 05019KT 10SM OVC007 M03/M04 A2980 RMK VIA PHONE


Wind From 050°
Speed 19 kn.

 
 
jpsmedia.com for Web Design SOUNDCLOUD worldairports.se 2018   terms of use